Time;durP1;ratioP1;P1;durP2;ratioP2;P2;SDS_P1;SDS_P2;PMS_P1;PMS_P2;Temp;Humidity;BMP_temperature;BMP_pressure;BME280_temperature;BME280_humidity;BME280_pressure;Samples;Min_cycle;Max_cycle;Signal;HPM_P1;HPM_P2
2024/03/13 00:08:13;718988.00;2.40;1240.18;0.00;0.00;0.62;;;;;13.00;1.00;;;;;;2248000;62;1061;-90
2024/03/13 00:13:49;371098.00;1.24;640.12;0.00;0.00;0.62;;;;;12.00;1.00;;;;;;2247928;62;1308;-90
2024/03/13 00:24:34;317678.00;1.06;548.31;0.00;0.00;0.62;;;;;12.60;1.00;;;;;;2255675;61;1325;-91
2024/03/13 00:27:04;121659.00;0.41;210.94;0.00;0.00;0.62;;;;;12.60;1.00;;;;;;2247173;61;935;-91
2024/03/13 01:17:06;478465.00;1.59;824.76;0.00;0.00;0.62;;;;;13.40;1.00;;;;;;2247534;62;952;-90
2024/03/13 01:22:05;429456.00;1.43;740.45;0.00;0.00;0.62;;;;;13.40;1.00;;;;;;2247000;62;1339;-91
2024/03/13 01:37:58;471569.00;1.57;812.89;0.00;0.00;0.62;;;;;11.80;1.00;;;;;;2255219;61;998;-89
2024/03/13 03:25:57;677551.00;2.26;1168.33;0.00;0.00;0.62;;;;;12.70;1.00;;;;;;2246538;62;1397;-88
2024/03/13 03:30:58;335841.00;1.12;579.53;0.00;0.00;0.62;;;;;12.50;1.00;;;;;;2254253;61;1951;-90
2024/03/13 03:33:25;73363.00;0.24;127.57;0.00;0.00;0.62;;;;;11.90;1.00;;;;;;2249286;61;1567;-90
2024/03/13 03:35:54;88519.00;0.30;153.75;0.00;0.00;0.62;;;;;11.70;1.00;;;;;;2249278;61;1824;-90
2024/03/13 04:08:31;333645.00;1.11;575.75;0.00;0.00;0.62;;;;;12.30;1.00;;;;;;2247189;62;1015;-90
2024/03/13 04:54:10;661599.00;2.21;1140.71;36563.00;0.12;63.94;;;;;12.40;1.00;;;;;;2370039;41;2106;-88
2024/03/13 05:59:11;282322.00;0.94;487.53;0.00;0.00;0.62;;;;;12.10;1.00;;;;;;2246637;62;1324;-89
2024/03/13 06:01:39;145662.00;0.49;252.33;0.00;0.00;0.62;;;;;12.30;1.00;;;;;;2241798;62;1609;-89
2024/03/13 06:24:05;566755.00;1.89;976.85;0.00;0.00;0.62;;;;;13.20;1.00;;;;;;2246467;62;1109;-91
2024/03/13 06:34:33;570853.00;1.90;983.92;0.00;0.00;0.62;;;;;13.00;1.00;;;;;;2247113;62;1339;-90
2024/03/13 06:39:30;440033.00;1.47;758.64;0.00;0.00;0.62;;;;;13.00;1.00;;;;;;2254979;61;1312;-88
2024/03/13 06:41:58;209369.00;0.70;362.05;0.00;0.00;0.62;;;;;13.10;1.00;;;;;;2246162;61;1569;-90
2024/03/13 07:19:50;687711.00;2.29;1185.93;107553.00;0.36;186.61;;;;;13.80;1.00;;;;;;2246434;62;995;-89
2024/03/13 07:45:48;171691.00;0.57;297.18;0.00;0.00;0.62;;;;;13.70;1.00;;;;;;2475835;56;3617;31
2024/03/13 08:11:07;752936.00;2.51;1299.16;0.00;0.00;0.62;;;;;13.60;1.00;;;;;;2247180;62;1933;-90
2024/03/13 09:28:36;853662.00;2.85;1474.88;14225.00;0.05;25.27;;;;;13.90;1.00;;;;;;2253916;61;1403;-90
2024/03/13 10:22:36;1305196.00;4.35;2281.62;85353.00;0.28;148.28;;;;;14.90;1.00;;;;;;2250909;62;1179;-90
2024/03/13 10:25:04;790227.00;2.63;1364.08;99270.00;0.33;172.31;;;;;14.60;1.00;;;;;;2242293;62;1513;-91
2024/03/13 11:35:05;475357.00;1.58;819.41;0.00;0.00;0.62;;;;;17.00;1.00;;;;;;2246446;62;1270;-90
2024/03/13 11:37:33;32476.00;0.11;56.87;0.00;0.00;0.62;;;;;17.20;1.00;;;;;;2241465;62;1649;-89
2024/03/13 11:42:48;480307.00;1.60;827.93;0.00;0.00;0.62;;;;;17.60;1.00;;;;;;2246472;62;1347;-89
2024/03/13 11:53:06;329716.00;1.10;569.00;0.00;0.00;0.62;;;;;17.40;1.00;;;;;;2250248;62;1319;-91
2024/03/13 12:35:29;549089.00;1.83;946.39;0.00;0.00;0.62;;;;;17.30;1.00;;;;;;2246864;62;1250;-89
2024/03/13 12:40:26;777795.00;2.59;1342.43;44066.00;0.15;76.92;;;;;17.50;1.00;;;;;;2247402;62;1291;-90
2024/03/13 12:58:45;923656.00;3.08;1597.71;75669.00;0.25;131.56;;;;;18.10;1.00;;;;;;2251068;62;997;-90
2024/03/13 13:08:38;1312168.00;4.37;2294.39;120312.00;0.40;208.62;;;;;18.10;1.00;;;;;;2471112;56;3649;31
2024/03/13 13:21:03;1223499.00;4.08;2132.76;82263.00;0.27;142.95;;;;;18.10;1.00;;;;;;2478254;56;3641;31
2024/03/13 13:40:55;920325.00;3.07;1591.85;0.00;0.00;0.62;;;;;17.90;1.00;;;;;;2254821;61;1132;-87
2024/03/13 14:36:16;402074.00;1.34;693.37;0.00;0.00;0.62;;;;;17.50;1.00;;;;;;2477336;41;3498;31
2024/03/13 15:31:22;417244.00;1.39;719.45;0.00;0.00;0.62;;;;;17.00;1.00;;;;;;2477165;56;3578;31
2024/03/13 18:18:26;453335.00;1.51;781.52;0.00;0.00;0.62;;;;;15.70;1.00;;;;;;2267358;56;3721;-88
2024/03/13 18:20:53;211463.00;0.70;365.65;39381.00;0.13;68.82;;;;;15.70;1.00;;;;;;2252252;61;1106;-88
2024/03/13 18:23:21;194990.00;0.65;337.30;32393.00;0.11;56.72;;;;;15.90;1.00;;;;;;2252247;61;1069;-88
2024/03/13 18:25:49;50276.00;0.17;87.66;0.00;0.00;0.62;;;;;16.10;1.00;;;;;;2252158;61;1385;-90
2024/03/13 18:28:18;30184.00;0.10;52.90;0.00;0.00;0.62;;;;;16.00;1.00;;;;;;2248900;61;1209;-89
2024/03/13 18:30:45;167885.00;0.56;290.62;20285.00;0.07;35.76;;;;;15.80;1.00;;;;;;2249062;61;2019;-88
2024/03/13 18:33:12;114309.00;0.38;198.26;0.00;0.00;0.62;;;;;15.60;1.00;;;;;;2248982;61;1796;-89
2024/03/13 18:35:39;76012.00;0.25;132.15;0.00;0.00;0.62;;;;;15.50;1.00;;;;;;2248940;61;1386;-88
2024/03/13 18:38:06;1038.00;0.00;2.42;0.00;0.00;0.62;;;;;15.40;1.00;;;;;;2249044;61;1126;-89
2024/03/13 18:40:34;169432.00;0.56;293.29;0.00;0.00;0.62;;;;;15.30;1.00;;;;;;2248957;61;1220;-88
2024/03/13 18:43:02;94609.00;0.32;164.27;0.00;0.00;0.62;;;;;15.30;1.00;;;;;;2248999;61;1579;-88
2024/03/13 18:45:29;167910.00;0.56;290.67;0.00;0.00;0.62;;;;;15.30;1.00;;;;;;2249012;61;1284;-88
2024/03/13 18:47:56;30908.00;0.10;54.15;0.00;0.00;0.62;;;;;15.50;1.00;;;;;;2248898;61;1174;-88
2024/03/13 18:50:26;189549.00;0.63;327.93;0.00;0.00;0.62;;;;;15.80;1.00;;;;;;2248792;61;1995;-87
2024/03/13 18:52:53;0.00;0.00;0.62;0.00;0.00;0.62;;;;;16.10;1.00;;;;;;2248886;61;1158;-89
2024/03/13 18:55:22;65168.00;0.22;113.41;0.00;0.00;0.62;;;;;16.10;1.00;;;;;;2248896;61;1298;-86
2024/03/13 18:57:49;96134.00;0.32;166.90;30501.00;0.10;53.45;;;;;15.90;1.00;;;;;;2248946;61;1707;-88
2024/03/13 19:00:19;145427.00;0.48;251.93;0.00;0.00;0.62;;;;;15.90;1.00;;;;;;2248959;61;1076;-87
2024/03/13 19:02:46;37704.00;0.13;65.92;0.00;0.00;0.62;;;;;15.80;1.00;;;;;;2248863;61;1608;-87
2024/03/13 19:05:13;80913.00;0.27;140.61;0.00;0.00;0.62;;;;;16.00;1.00;;;;;;2248745;61;1713;-88
2024/03/13 19:07:41;0.00;0.00;0.62;0.00;0.00;0.62;;;;;16.00;1.00;;;;;;2248764;61;1680;-89
2024/03/13 19:10:08;135276.00;0.45;234.43;0.00;0.00;0.62;;;;;15.90;1.00;;;;;;2248892;61;1159;-89
2024/03/13 19:12:35;24620.00;0.08;43.27;0.00;0.00;0.62;;;;;15.80;1.00;;;;;;2248831;61;1929;-88
2024/03/13 19:15:04;157738.00;0.53;273.14;0.00;0.00;0.62;;;;;15.40;1.00;;;;;;2248845;61;1384;-88
2024/03/13 19:17:31;68687.00;0.23;119.49;0.00;0.00;0.62;;;;;15.70;1.00;;;;;;2248883;61;1022;-87
2024/03/13 19:19:58;16511.00;0.06;29.23;0.00;0.00;0.62;;;;;15.70;1.00;;;;;;2248775;61;1656;-88
2024/03/13 19:22:25;123669.00;0.41;214.41;0.00;0.00;0.62;;;;;15.80;1.00;;;;;;2248752;61;1214;-90
2024/03/13 19:24:52;22573.00;0.08;39.73;0.00;0.00;0.62;;;;;15.80;1.00;;;;;;2248769;61;1421;-87
2024/03/13 19:27:19;88777.00;0.30;154.20;0.00;0.00;0.62;;;;;15.90;1.00;;;;;;2248728;61;1009;-88
2024/03/13 19:29:46;122340.00;0.41;212.12;0.00;0.00;0.62;;;;;16.00;1.00;;;;;;2248776;61;1034;-87
2024/03/13 19:32:14;41961.00;0.14;73.28;0.00;0.00;0.62;;;;;15.90;1.00;;;;;;2248784;61;2005;-87
2024/03/13 19:34:42;96176.00;0.32;166.97;10894.00;0.04;19.50;;;;;15.90;1.00;;;;;;2248774;61;1615;-89
2024/03/13 19:37:09;50066.00;0.17;87.30;0.00;0.00;0.62;;;;;15.70;1.00;;;;;;2248819;61;1193;-86
2024/03/13 19:39:36;148717.00;0.50;257.60;39897.00;0.13;69.71;;;;;15.60;1.00;;;;;;2249399;61;1133;-88
2024/03/13 19:42:05;39843.00;0.13;69.62;0.00;0.00;0.62;;;;;15.70;1.00;;;;;;2249462;61;1708;-88
2024/03/13 19:44:32;60493.00;0.20;105.33;0.00;0.00;0.62;;;;;15.60;1.00;;;;;;2249484;61;1745;-87
2024/03/13 19:46:59;43791.00;0.15;76.45;0.00;0.00;0.62;;;;;15.70;1.00;;;;;;2249563;61;1018;-88
2024/03/13 19:49:26;0.00;0.00;0.62;0.00;0.00;0.62;;;;;15.60;1.00;;;;;;2249531;61;1061;-88
2024/03/13 19:51:54;38614.00;0.13;67.49;0.00;0.00;0.62;;;;;15.60;1.00;;;;;;2249517;61;1924;-87
2024/03/13 19:54:21;0.00;0.00;0.62;0.00;0.00;0.62;;;;;15.60;1.00;;;;;;2249553;61;1048;-88
2024/03/13 19:56:48;89694.00;0.30;155.78;0.00;0.00;0.62;;;;;15.60;1.00;;;;;;2249387;61;1212;-87
2024/03/13 19:59:15;0.00;0.00;0.62;0.00;0.00;0.62;;;;;15.60;1.00;;;;;;2249466;61;1136;-87
2024/03/13 20:01:42;27593.00;0.09;48.42;0.00;0.00;0.62;;;;;15.60;1.00;;;;;;2249446;61;1699;-88
2024/03/13 20:04:09;0.00;0.00;0.62;0.00;0.00;0.62;;;;;15.50;1.00;;;;;;2249485;61;1038;-89
2024/03/13 20:06:41;189186.00;0.63;327.31;12308.00;0.04;21.95;;;;;15.50;1.00;;;;;;2249408;61;1283;-88
2024/03/13 20:09:13;57484.00;0.19;100.13;0.00;0.00;0.62;;;;;15.50;1.00;;;;;;2249603;61;1256;-88
2024/03/13 20:11:40;100346.00;0.33;174.17;0.00;0.00;0.62;;;;;15.50;1.00;;;;;;2249650;61;1999;-86
2024/03/13 20:14:08;144583.00;0.48;250.47;0.00;0.00;0.62;;;;;15.50;1.00;;;;;;2249384;61;1271;-88
2024/03/13 20:16:41;46856.00;0.16;81.75;0.00;0.00;0.62;;;;;15.40;1.00;;;;;;2249376;61;1385;-87
2024/03/13 20:19:09;191747.00;0.64;331.72;89576.00;0.30;155.58;;;;;15.60;1.00;;;;;;2249392;61;1097;-86
2024/03/13 20:21:37;242149.00;0.81;418.45;79851.00;0.27;138.78;;;;;15.60;1.00;;;;;;2249413;61;1719;-89
2024/03/13 20:24:04;168207.00;0.56;291.18;82831.00;0.28;143.93;;;;;15.50;1.00;;;;;;2249346;61;1664;-88
2024/03/13 20:26:31;189807.00;0.63;328.38;82899.00;0.28;144.04;;;;;15.60;1.00;;;;;;2249337;61;1682;-87
2024/03/13 20:28:58;354616.00;1.18;611.79;111223.00;0.37;192.94;;;;;15.60;1.00;;;;;;2249386;61;1125;-89
2024/03/13 20:31:25;234487.00;0.78;405.27;83567.00;0.28;145.20;;;;;15.60;1.00;;;;;;2249160;61;2007;-89
2024/03/13 20:33:53;165453.00;0.55;286.43;77783.00;0.26;135.21;;;;;15.50;1.00;;;;;;2249275;61;1309;-90
2024/03/13 20:36:21;164228.00;0.55;284.32;76639.00;0.26;133.23;;;;;15.50;1.00;;;;;;2249230;61;1309;-88
2024/03/13 20:38:48;173966.00;0.58;301.10;85890.00;0.29;149.21;;;;;15.30;1.00;;;;;;2249198;61;1244;-88
2024/03/13 20:41:15;24055.00;0.08;42.29;0.00;0.00;0.62;;;;;15.30;1.00;;;;;;2249248;61;993;-89
2024/03/13 20:43:42;245020.00;0.82;423.39;23560.00;0.08;41.43;;;;;15.30;1.00;;;;;;2249126;61;2340;-88
2024/03/13 20:46:13;87184.00;0.29;151.44;0.00;0.00;0.62;;;;;15.30;1.00;;;;;;2249092;61;1522;-89
2024/03/13 20:48:40;49609.00;0.17;86.51;0.00;0.00;0.62;;;;;15.40;1.00;;;;;;2249155;61;1766;-87
2024/03/13 20:51:07;97579.00;0.33;169.39;0.00;0.00;0.62;;;;;15.60;1.00;;;;;;2248881;61;2003;-88
2024/03/13 20:53:34;81482.00;0.27;141.60;0.00;0.00;0.62;;;;;15.60;1.00;;;;;;2249041;61;1557;-89
2024/03/13 20:56:02;134457.00;0.45;233.01;5367.00;0.02;9.92;;;;;15.70;1.00;;;;;;2249157;61;1742;-88
2024/03/13 20:58:30;241329.00;0.80;417.04;32514.00;0.11;56.93;;;;;15.50;1.00;;;;;;2248166;61;1764;-88
2024/03/13 21:00:57;123328.00;0.41;213.82;0.00;0.00;0.62;;;;;15.50;1.00;;;;;;2249173;61;1666;-88
2024/03/13 21:03:24;18459.00;0.06;32.60;0.00;0.00;0.62;;;;;15.70;1.00;;;;;;2249155;61;1746;-87
2024/03/13 21:05:52;93893.00;0.31;163.03;0.00;0.00;0.62;;;;;15.80;1.00;;;;;;2249131;61;1382;-90
2024/03/13 21:08:19;32605.00;0.11;57.09;0.00;0.00;0.62;;;;;15.90;1.00;;;;;;2249174;61;1303;-88
2024/03/13 21:10:46;98297.00;0.33;170.63;0.00;0.00;0.62;;;;;15.80;1.00;;;;;;2249181;61;896;-90
2024/03/13 21:13:14;24531.00;0.08;43.12;0.00;0.00;0.62;;;;;15.70;1.00;;;;;;2249021;61;1955;-89
2024/03/13 21:15:41;8066.00;0.03;14.60;0.00;0.00;0.62;;;;;15.80;1.00;;;;;;2249158;61;1361;-87
2024/03/13 21:18:09;187645.00;0.63;324.65;67002.00;0.22;116.58;;;;;15.90;1.00;;;;;;2249084;61;1568;-88
2024/03/13 21:20:36;200560.00;0.67;346.89;0.00;0.00;0.62;;;;;15.80;1.00;;;;;;2249032;61;1116;-88
2024/03/13 21:23:03;136845.00;0.46;237.13;0.00;0.00;0.62;;;;;15.50;1.00;;;;;;2249152;61;1059;-88
2024/03/13 21:25:31;19113.00;0.06;33.73;0.00;0.00;0.62;;;;;15.60;1.00;;;;;;2249109;61;1305;-90
2024/03/13 21:27:58;70387.00;0.23;122.43;0.00;0.00;0.62;;;;;15.70;1.00;;;;;;2249050;61;1209;-88
2024/03/13 21:30:25;96931.00;0.32;168.27;0.00;0.00;0.62;;;;;15.70;1.00;;;;;;2249064;61;1194;-89
2024/03/13 21:32:53;131149.00;0.44;227.31;0.00;0.00;0.62;;;;;15.60;1.00;;;;;;2249083;61;2002;-89
2024/03/13 21:35:23;26527.00;0.09;46.57;0.00;0.00;0.62;;;;;15.70;1.00;;;;;;2248961;61;1740;-88
2024/03/13 21:37:52;69832.00;0.23;121.47;0.00;0.00;0.62;;;;;15.60;1.00;;;;;;2249145;61;1097;-88
2024/03/13 21:40:21;17791.00;0.06;31.44;0.00;0.00;0.62;;;;;15.50;1.00;;;;;;2248970;61;1562;-90
2024/03/13 21:42:48;11397.00;0.04;20.37;0.00;0.00;0.62;;;;;15.50;1.00;;;;;;2249083;61;1560;-88
2024/03/13 21:45:15;0.00;0.00;0.62;0.00;0.00;0.62;;;;;15.70;1.00;;;;;;2249006;61;1392;-88
2024/03/13 21:47:44;57220.00;0.19;99.67;0.00;0.00;0.62;;;;;15.80;1.00;;;;;;2254772;40;3597;-89
2024/03/13 21:50:11;61554.00;0.21;107.16;0.00;0.00;0.62;;;;;15.80;1.00;;;;;;2245627;61;1576;-87
2024/03/13 21:52:38;115627.00;0.39;200.54;0.00;0.00;0.62;;;;;15.70;1.00;;;;;;2245691;61;2005;-86
2024/03/13 21:55:06;108043.00;0.36;187.45;0.00;0.00;0.62;;;;;15.50;1.00;;;;;;2245749;61;1369;-88
2024/03/13 21:57:33;168572.00;0.56;291.81;0.00;0.00;0.62;;;;;15.50;1.00;;;;;;2245708;61;1617;-87
2024/03/13 22:00:00;146400.00;0.49;253.60;0.00;0.00;0.62;;;;;15.40;1.00;;;;;;2245637;61;932;-90
2024/03/13 22:02:27;150011.00;0.50;259.83;0.00;0.00;0.62;;;;;15.30;1.00;;;;;;2245615;61;1740;-89
2024/03/13 22:04:54;16065.00;0.05;28.46;0.00;0.00;0.62;;;;;15.20;1.00;;;;;;2245674;61;1272;-89
2024/03/13 22:07:23;34942.00;0.12;61.14;0.00;0.00;0.62;;;;;15.20;1.00;;;;;;2245716;61;1060;-90
2024/03/13 22:09:50;23115.00;0.08;40.66;0.00;0.00;0.62;;;;;15.10;1.00;;;;;;2245780;61;1279;-91
2024/03/13 22:12:17;112377.00;0.37;194.93;0.00;0.00;0.62;;;;;15.10;1.00;;;;;;2245693;61;2001;-89
2024/03/13 22:14:44;198056.00;0.66;342.58;0.00;0.00;0.62;;;;;15.10;1.00;;;;;;2245652;61;1733;-88
2024/03/13 22:17:12;269006.00;0.90;464.63;11115.00;0.04;19.88;;;;;15.20;1.00;;;;;;2245631;61;1729;-89
2024/03/13 22:19:42;123407.00;0.41;213.96;0.00;0.00;0.62;;;;;15.30;1.00;;;;;;2245643;61;1556;-88
2024/03/13 22:24:46;325960.00;1.09;562.54;706.00;0.00;1.84;;;;;15.10;1.00;;;;;;2282706;41;2007;-89
2024/03/13 22:27:13;17757.00;0.06;31.39;0.00;0.00;0.62;;;;;15.00;1.00;;;;;;2248913;61;1532;-89
2024/03/13 22:29:41;83716.00;0.28;145.46;0.00;0.00;0.62;;;;;15.00;1.00;;;;;;2248766;61;1006;-89
2024/03/13 22:32:08;14542.00;0.05;25.82;0.00;0.00;0.62;;;;;15.10;1.00;;;;;;2248901;61;1924;-88
2024/03/13 22:34:36;103396.00;0.34;179.43;0.00;0.00;0.62;;;;;15.20;1.00;;;;;;2248912;61;1388;-88
2024/03/13 22:37:04;0.00;0.00;0.62;0.00;0.00;0.62;;;;;15.10;1.00;;;;;;2248784;61;1107;-89
2024/03/13 22:39:32;54982.00;0.18;95.80;0.00;0.00;0.62;;;;;15.10;1.00;;;;;;2248890;61;1662;-90
2024/03/13 22:41:59;38965.00;0.13;68.10;0.00;0.00;0.62;;;;;14.80;1.00;;;;;;2248881;61;935;-90
2024/03/13 22:44:26;0.00;0.00;0.62;0.00;0.00;0.62;;;;;14.80;1.00;;;;;;2248859;61;939;-89
2024/03/13 22:46:55;195700.00;0.65;338.52;0.00;0.00;0.62;;;;;14.90;1.00;;;;;;2248797;61;931;-89
2024/03/13 22:49:22;142342.00;0.47;246.61;0.00;0.00;0.62;;;;;15.00;1.00;;;;;;2262212;41;3629;-89
2024/03/13 22:51:50;47684.00;0.16;83.18;0.00;0.00;0.62;;;;;15.10;1.00;;;;;;2244050;61;1919;-89
2024/03/13 22:56:45;173168.00;0.58;299.72;0.00;0.00;0.62;;;;;14.30;1.00;;;;;;2253658;61;1415;-88
2024/03/13 22:59:12;210995.00;0.70;364.85;0.00;0.00;0.62;;;;;14.00;1.00;;;;;;2245478;61;1699;-89
2024/03/13 23:01:40;176822.00;0.59;306.02;0.00;0.00;0.62;;;;;13.90;1.00;;;;;;2245544;61;1016;-89
2024/03/13 23:04:08;119050.00;0.40;206.44;0.00;0.00;0.62;;;;;14.20;1.00;;;;;;2245453;61;1618;-87
2024/03/13 23:06:35;114119.00;0.38;197.94;12302.00;0.04;21.94;;;;;14.30;1.00;;;;;;2248595;61;1707;-90
2024/03/13 23:09:06;101414.00;0.34;176.01;0.00;0.00;0.62;;;;;14.50;1.00;;;;;;2245528;61;1549;-88
2024/03/13 23:11:33;102344.00;0.34;177.62;0.00;0.00;0.62;;;;;14.40;1.00;;;;;;2245784;61;967;-87
2024/03/13 23:14:00;62691.00;0.21;109.13;0.00;0.00;0.62;;;;;14.30;1.00;;;;;;2245501;61;1924;-88
2024/03/13 23:16:28;263526.00;0.88;455.21;0.00;0.00;0.62;;;;;14.20;1.00;;;;;;2245544;61;1330;-89
2024/03/13 23:18:55;166007.00;0.55;287.39;0.00;0.00;0.62;;;;;14.10;1.00;;;;;;2248683;61;1712;-87
2024/03/13 23:21:23;65976.00;0.22;114.81;0.00;0.00;0.62;;;;;14.20;1.00;;;;;;2245480;61;980;-88
2024/03/13 23:23:50;87175.00;0.29;151.43;0.00;0.00;0.62;;;;;14.40;1.00;;;;;;2245596;61;1758;-88
2024/03/13 23:26:18;2611.00;0.01;5.15;0.00;0.00;0.62;;;;;14.40;1.00;;;;;;2248580;61;1601;-90
2024/03/13 23:28:45;72099.00;0.24;125.39;0.00;0.00;0.62;;;;;14.30;1.00;;;;;;2248602;61;1599;-90
2024/03/13 23:31:12;156283.00;0.52;270.63;11213.00;0.04;20.05;;;;;14.30;1.00;;;;;;2248702;61;1033;-89
2024/03/13 23:33:41;209528.00;0.70;362.32;58187.00;0.19;101.34;;;;;14.30;1.00;;;;;;2245536;61;1993;-90
2024/03/13 23:36:10;78350.00;0.26;136.19;0.00;0.00;0.62;;;;;14.30;1.00;;;;;;2245470;61;1262;-90
2024/03/13 23:38:41;67782.00;0.23;117.93;0.00;0.00;0.62;;;;;14.40;1.00;;;;;;2245441;61;929;-90
2024/03/13 23:41:10;167617.00;0.56;290.16;0.00;0.00;0.62;;;;;14.30;1.00;;;;;;2245495;61;1713;-88
2024/03/13 23:43:37;96122.00;0.32;166.88;0.00;0.00;0.62;;;;;14.40;1.00;;;;;;2248672;61;1282;-87
2024/03/13 23:46:05;140510.00;0.47;243.45;0.00;0.00;0.62;;;;;14.40;1.00;;;;;;2245361;61;1730;-90
2024/03/13 23:48:33;230828.00;0.77;398.97;27789.00;0.09;48.76;;;;;14.50;1.00;;;;;;2252418;56;3743;-90
2024/03/13 23:53:30;139383.00;0.46;241.51;0.00;0.00;0.62;;;;;14.30;1.00;;;;;;2253961;61;1969;-88
2024/03/13 23:55:57;120857.00;0.40;209.56;0.00;0.00;0.62;;;;;14.20;1.00;;;;;;2251901;61;1388;-86
2024/03/13 23:58:24;12830.00;0.04;22.85;0.00;0.00;0.62;;;;;14.40;1.00;;;;;;2248621;61;960;-89
